This is the latest recevied weather packets stored in our database for station/object KA9CBS. If no packets are shown the sender has not sent any weather packets the latest 10 day(s).
| Time | Temp. | Humidity | Pressure | Rain* | Wind** | Luminosity | Snow |
|---|---|---|---|---|---|---|---|
| 1787865529 | 28.33° C | 55% | 1017.8 hPa | 0 mm | - | 77 W/m² | - |
| 1787865219 | 28.33° C | 58% | 1017.7 hPa | 0 mm | - | 129 W/m² | - |
| 1787864915 | 28.89° C | 55% | 1017.6 hPa | 0 mm | - | 179 W/m² | - |
| 1787864610 | 28.89° C | 54% | 1017.7 hPa | 0 mm | - | 475 W/m² | - |
| 1787864304 | 28.89° C | 56% | 1017.7 hPa | 0 mm | - | 517 W/m² | - |
| 1787863999 | 28.33° C | 55% | 1017.7 hPa | 0 mm | - | 523 W/m² | - |
| 1787863698 | 28.33° C | 54% | 1017.7 hPa | 0 mm | - | 547 W/m² | - |
| 1787863397 | 28.33° C | 57% | 1017.6 hPa | 0 mm | - | 590 W/m² | - |
| 1787863092 | 28.33° C | 56% | 1017.9 hPa | 0 mm | - | 595 W/m² | - |
| 1787862788 | 28.33° C | 54% | 1017.8 hPa | 0 mm | - | 598 W/m² | - |
| 1787862487 | 28.33° C | 58% | 1018 hPa | 0 mm | - | 594 W/m² | - |
| 1787862182 | 27.78° C | 56% | 1018.1 hPa | 0 mm | - | 626 W/m² | - |
| 1787861878 | 28.89° C | 55% | 1017.9 hPa | 0 mm | - | 636 W/m² | - |
| 1787861577 | 28.33° C | 55% | 1017.9 hPa | 0 mm | - | 651 W/m² | - |
| 1787861270 | 28.33° C | 60% | 1018 hPa | 0 mm | - | 162 W/m² | - |
| 1787860965 | 28.33° C | 55% | 1017.9 hPa | 0 mm | - | 649 W/m² | - |
| 1787860664 | 28.33° C | 57% | 1017.8 hPa | 0 mm | - | 658 W/m² | - |
| 1787860359 | 28.33° C | 53% | 1017.9 hPa | 0 mm | - | 186 W/m² | - |
| 1787860054 | 28.33° C | 57% | 1017.8 hPa | 0 mm | - | 655 W/m² | - |
| 1787859749 | 27.78° C | 60% | 1018 hPa | 0 mm | - | 657 W/m² | - |
| 1787859444 | 27.78° C | 58% | 1018.2 hPa | 0 mm | - | 171 W/m² | - |
| 1787859144 | 28.33° C | 56% | 1018 hPa | 0 mm | - | 189 W/m² | - |
| 1787858841 | 27.78° C | 59% | 1018.3 hPa | 0 mm | - | 180 W/m² | - |
| 1787858536 | 28.33° C | 58% | 1018.2 hPa | 0 mm | - | 200 W/m² | - |
| 1787858235 | 28.33° C | 60% | 1018.2 hPa | 0 mm | - | 694 W/m² | - |
* Rain latest hour (hover to see other rain measurements)
** Current wind speed in m/s (hover to see current wind gust speed)